sensor_id;sensor_type;location;lat;lon;timestamp;temperature;humidity
71084;DHT22;58741;52.672;13.548;2024-02-28T00:02:02;5.00;99.90
71084;DHT22;58741;52.672;13.548;2024-02-28T00:04:29;5.00;99.90
71084;DHT22;58741;52.672;13.548;2024-02-28T00:06:56;5.00;99.90
71084;DHT22;58741;52.672;13.548;2024-02-28T00:09:23;5.00;99.90
71084;DHT22;58741;52.672;13.548;2024-02-28T00:11:50;5.00;99.90
71084;DHT22;58741;52.672;13.548;2024-02-28T00:14:17;5.00;99.90
71084;DHT22;58741;52.672;13.548;2024-02-28T00:16:44;5.00;99.90
71084;DHT22;58741;52.672;13.548;2024-02-28T00:19:12;5.00;99.90
71084;DHT22;58741;52.672;13.548;2024-02-28T00:21:40;5.00;99.90
71084;DHT22;58741;52.672;13.548;2024-02-28T00:24:07;5.00;99.90
71084;DHT22;58741;52.672;13.548;2024-02-28T00:26:34;5.00;99.90
71084;DHT22;58741;52.672;13.548;2024-02-28T00:29:01;5.00;99.90
71084;DHT22;58741;52.672;13.548;2024-02-28T00:31:28;5.00;99.90
71084;DHT22;58741;52.672;13.548;2024-02-28T00:33:55;5.00;99.90
71084;DHT22;58741;52.672;13.548;2024-02-28T00:36:22;5.00;99.90
71084;DHT22;58741;52.672;13.548;2024-02-28T00:38:49;5.00;99.90
71084;DHT22;58741;52.672;13.548;2024-02-28T00:41:15;5.00;99.90
71084;DHT22;58741;52.672;13.548;2024-02-28T00:43:42;5.00;99.90
71084;DHT22;58741;52.672;13.548;2024-02-28T00:46:09;4.90;99.90
71084;DHT22;58741;52.672;13.548;2024-02-28T00:48:39;4.90;99.90
71084;DHT22;58741;52.672;13.548;2024-02-28T00:51:07;4.90;99.90
71084;DHT22;58741;52.672;13.548;2024-02-28T00:53:34;4.90;99.90
71084;DHT22;58741;52.672;13.548;2024-02-28T00:56:01;4.90;99.90
71084;DHT22;58741;52.672;13.548;2024-02-28T00:58:28;4.90;99.90
71084;DHT22;58741;52.672;13.548;2024-02-28T01:00:56;4.90;99.90
71084;DHT22;58741;52.672;13.548;2024-02-28T01:03:24;4.90;99.90
71084;DHT22;58741;52.672;13.548;2024-02-28T01:05:51;4.90;99.90
71084;DHT22;58741;52.672;13.548;2024-02-28T01:08:18;4.80;99.90
71084;DHT22;58741;52.672;13.548;2024-02-28T01:10:45;4.90;99.90
71084;DHT22;58741;52.672;13.548;2024-02-28T01:13:13;4.90;99.90
71084;DHT22;58741;52.672;13.548;2024-02-28T01:15:40;4.80;99.90
71084;DHT22;58741;52.672;13.548;2024-02-28T01:18:09;4.80;99.90
71084;DHT22;58741;52.672;13.548;2024-02-28T01:20:37;4.80;99.90
71084;DHT22;58741;52.672;13.548;2024-02-28T01:23:04;4.80;99.90
71084;DHT22;58741;52.672;13.548;2024-02-28T01:25:30;4.80;99.90
71084;DHT22;58741;52.672;13.548;2024-02-28T01:27:57;4.80;99.90
71084;DHT22;58741;52.672;13.548;2024-02-28T01:30:27;4.80;99.90
71084;DHT22;58741;52.672;13.548;2024-02-28T01:32:54;4.80;99.90
71084;DHT22;58741;52.672;13.548;2024-02-28T01:35:21;4.80;99.90
71084;DHT22;58741;52.672;13.548;2024-02-28T01:37:48;4.80;99.90
71084;DHT22;58741;52.672;13.548;2024-02-28T01:40:15;4.80;99.90
71084;DHT22;58741;52.672;13.548;2024-02-28T01:42:42;4.80;99.90
71084;DHT22;58741;52.672;13.548;2024-02-28T01:45:13;4.80;99.90
71084;DHT22;58741;52.672;13.548;2024-02-28T01:47:42;4.80;99.90
71084;DHT22;58741;52.672;13.548;2024-02-28T01:50:09;4.80;99.90
71084;DHT22;58741;52.672;13.548;2024-02-28T01:52:38;4.70;99.90
71084;DHT22;58741;52.672;13.548;2024-02-28T01:55:06;4.80;99.90
71084;DHT22;58741;52.672;13.548;2024-02-28T01:57:33;4.80;99.90
71084;DHT22;58741;52.672;13.548;2024-02-28T02:00:01;4.80;99.90
71084;DHT22;58741;52.672;13.548;2024-02-28T02:02:30;4.80;99.90
71084;DHT22;58741;52.672;13.548;2024-02-28T02:04:57;4.80;99.90
71084;DHT22;58741;52.672;13.548;2024-02-28T02:07:24;4.80;99.90
71084;DHT22;58741;52.672;13.548;2024-02-28T02:09:52;4.80;99.90
71084;DHT22;58741;52.672;13.548;2024-02-28T02:12:19;4.80;99.90
71084;DHT22;58741;52.672;13.548;2024-02-28T02:14:49;4.80;99.90
71084;DHT22;58741;52.672;13.548;2024-02-28T02:17:16;4.80;99.90
71084;DHT22;58741;52.672;13.548;2024-02-28T02:19:43;4.80;99.90
71084;DHT22;58741;52.672;13.548;2024-02-28T02:22:13;4.70;99.90
71084;DHT22;58741;52.672;13.548;2024-02-28T02:24:41;4.70;99.90
71084;DHT22;58741;52.672;13.548;2024-02-28T02:27:07;4.70;99.90
71084;DHT22;58741;52.672;13.548;2024-02-28T02:29:34;4.70;99.90
71084;DHT22;58741;52.672;13.548;2024-02-28T02:32:01;4.80;99.90
71084;DHT22;58741;52.672;13.548;2024-02-28T02:34:28;4.70;99.90
71084;DHT22;58741;52.672;13.548;2024-02-28T02:36:54;4.70;99.90
71084;DHT22;58741;52.672;13.548;2024-02-28T02:39:21;4.70;99.90
71084;DHT22;58741;52.672;13.548;2024-02-28T02:41:48;4.70;99.90
71084;DHT22;58741;52.672;13.548;2024-02-28T02:44:15;4.70;99.90
71084;DHT22;58741;52.672;13.548;2024-02-28T02:46:42;4.70;99.90
71084;DHT22;58741;52.672;13.548;2024-02-28T02:49:09;4.70;99.90
71084;DHT22;58741;52.672;13.548;2024-02-28T02:51:35;4.70;99.90
71084;DHT22;58741;52.672;13.548;2024-02-28T02:54:02;4.70;99.90
71084;DHT22;58741;52.672;13.548;2024-02-28T02:56:29;4.70;99.90
71084;DHT22;58741;52.672;13.548;2024-02-28T02:58:56;4.70;99.90
71084;DHT22;58741;52.672;13.548;2024-02-28T03:01:22;4.70;99.90
71084;DHT22;58741;52.672;13.548;2024-02-28T03:03:49;4.70;99.90
71084;DHT22;58741;52.672;13.548;2024-02-28T03:06:16;4.60;99.90
71084;DHT22;58741;52.672;13.548;2024-02-28T03:08:43;4.60;99.90
71084;DHT22;58741;52.672;13.548;2024-02-28T03:11:10;4.60;99.90
71084;DHT22;58741;52.672;13.548;2024-02-28T03:13:38;4.60;99.90
71084;DHT22;58741;52.672;13.548;2024-02-28T03:16:04;4.70;99.90
71084;DHT22;58741;52.672;13.548;2024-02-28T03:18:31;4.60;99.90
71084;DHT22;58741;52.672;13.548;2024-02-28T03:20:58;4.60;99.90
71084;DHT22;58741;52.672;13.548;2024-02-28T03:23:25;4.60;99.90
71084;DHT22;58741;52.672;13.548;2024-02-28T03:25:52;4.60;99.90
71084;DHT22;58741;52.672;13.548;2024-02-28T03:28:19;4.60;99.90
71084;DHT22;58741;52.672;13.548;2024-02-28T03:30:45;4.60;99.90
71084;DHT22;58741;52.672;13.548;2024-02-28T03:33:12;4.60;99.90
71084;DHT22;58741;52.672;13.548;2024-02-28T03:35:39;4.60;99.90
71084;DHT22;58741;52.672;13.548;2024-02-28T03:38:06;4.60;99.90
71084;DHT22;58741;52.672;13.548;2024-02-28T03:40:32;4.60;99.90
71084;DHT22;58741;52.672;13.548;2024-02-28T03:42:59;4.60;99.90
71084;DHT22;58741;52.672;13.548;2024-02-28T03:45:28;4.60;99.90
71084;DHT22;58741;52.672;13.548;2024-02-28T03:47:56;4.60;99.90
71084;DHT22;58741;52.672;13.548;2024-02-28T03:50:22;4.60;99.90
71084;DHT22;58741;52.672;13.548;2024-02-28T03:52:49;4.60;99.90
71084;DHT22;58741;52.672;13.548;2024-02-28T03:55:16;4.60;99.90
71084;DHT22;58741;52.672;13.548;2024-02-28T03:57:47;4.60;99.90
71084;DHT22;58741;52.672;13.548;2024-02-28T04:00:14;4.60;99.90
71084;DHT22;58741;52.672;13.548;2024-02-28T04:02:41;4.60;99.90
71084;DHT22;58741;52.672;13.548;2024-02-28T04:05:08;4.60;99.90
71084;DHT22;58741;52.672;13.548;2024-02-28T04:07:35;4.50;99.90
71084;DHT22;58741;52.672;13.548;2024-02-28T04:10:02;4.60;99.90
71084;DHT22;58741;52.672;13.548;2024-02-28T04:12:31;4.50;99.90
71084;DHT22;58741;52.672;13.548;2024-02-28T04:14:59;4.60;99.90
71084;DHT22;58741;52.672;13.548;2024-02-28T04:17:26;4.60;99.90
71084;DHT22;58741;52.672;13.548;2024-02-28T04:19:53;4.60;99.90
71084;DHT22;58741;52.672;13.548;2024-02-28T04:22:20;4.60;99.90
71084;DHT22;58741;52.672;13.548;2024-02-28T04:24:47;4.50;99.90
71084;DHT22;58741;52.672;13.548;2024-02-28T04:27:13;4.50;99.90
71084;DHT22;58741;52.672;13.548;2024-02-28T04:29:40;4.50;99.90
71084;DHT22;58741;52.672;13.548;2024-02-28T04:32:07;4.50;99.90
71084;DHT22;58741;52.672;13.548;2024-02-28T04:34:36;4.50;99.90
71084;DHT22;58741;52.672;13.548;2024-02-28T04:37:03;4.50;99.90
71084;DHT22;58741;52.672;13.548;2024-02-28T04:39:30;4.50;99.90
71084;DHT22;58741;52.672;13.548;2024-02-28T04:41:57;4.50;99.90
71084;DHT22;58741;52.672;13.548;2024-02-28T04:44:24;4.50;99.90
71084;DHT22;58741;52.672;13.548;2024-02-28T04:46:51;4.50;99.90
71084;DHT22;58741;52.672;13.548;2024-02-28T04:49:17;4.50;99.90
71084;DHT22;58741;52.672;13.548;2024-02-28T04:51:44;4.50;99.90
71084;DHT22;58741;52.672;13.548;2024-02-28T04:54:11;4.50;99.90
71084;DHT22;58741;52.672;13.548;2024-02-28T04:56:41;4.50;99.90
71084;DHT22;58741;52.672;13.548;2024-02-28T04:59:12;4.50;99.90
71084;DHT22;58741;52.672;13.548;2024-02-28T05:01:39;4.50;99.90
71084;DHT22;58741;52.672;13.548;2024-02-28T05:04:09;4.40;99.90
71084;DHT22;58741;52.672;13.548;2024-02-28T05:06:35;4.50;99.90
71084;DHT22;58741;52.672;13.548;2024-02-28T05:09:06;4.50;99.90
71084;DHT22;58741;52.672;13.548;2024-02-28T05:11:33;4.40;99.90
71084;DHT22;58741;52.672;13.548;2024-02-28T05:14:00;4.40;99.90
71084;DHT22;58741;52.672;13.548;2024-02-28T05:16:27;4.40;99.90
71084;DHT22;58741;52.672;13.548;2024-02-28T05:18:54;4.40;99.90
71084;DHT22;58741;52.672;13.548;2024-02-28T05:21:21;4.40;99.90
71084;DHT22;58741;52.672;13.548;2024-02-28T05:23:48;4.40;99.90
71084;DHT22;58741;52.672;13.548;2024-02-28T05:26:15;4.40;99.90
71084;DHT22;58741;52.672;13.548;2024-02-28T05:28:42;4.40;99.90
71084;DHT22;58741;52.672;13.548;2024-02-28T05:31:25;4.40;99.90
71084;DHT22;58741;52.672;13.548;2024-02-28T05:33:54;4.40;99.90
71084;DHT22;58741;52.672;13.548;2024-02-28T05:36:23;4.40;99.90
71084;DHT22;58741;52.672;13.548;2024-02-28T05:38:50;4.40;99.90
71084;DHT22;58741;52.672;13.548;2024-02-28T05:41:18;4.40;99.90
71084;DHT22;58741;52.672;13.548;2024-02-28T05:43:45;4.40;99.90
71084;DHT22;58741;52.672;13.548;2024-02-28T05:46:13;4.40;99.90
71084;DHT22;58741;52.672;13.548;2024-02-28T05:48:43;4.40;99.90
71084;DHT22;58741;52.672;13.548;2024-02-28T05:51:11;4.40;99.90
71084;DHT22;58741;52.672;13.548;2024-02-28T05:53:38;4.40;99.90
71084;DHT22;58741;52.672;13.548;2024-02-28T05:56:06;4.40;99.90
71084;DHT22;58741;52.672;13.548;2024-02-28T05:58:40;4.40;99.90
71084;DHT22;58741;52.672;13.548;2024-02-28T06:01:08;4.40;99.90
71084;DHT22;58741;52.672;13.548;2024-02-28T06:03:36;4.40;99.90
71084;DHT22;58741;52.672;13.548;2024-02-28T06:06:03;4.40;99.90
71084;DHT22;58741;52.672;13.548;2024-02-28T06:08:33;4.40;99.90
71084;DHT22;58741;52.672;13.548;2024-02-28T06:11:00;4.40;99.90
71084;DHT22;58741;52.672;13.548;2024-02-28T06:13:28;4.40;99.90
71084;DHT22;58741;52.672;13.548;2024-02-28T06:15:58;4.40;99.90
71084;DHT22;58741;52.672;13.548;2024-02-28T06:18:26;4.30;99.90
71084;DHT22;58741;52.672;13.548;2024-02-28T06:21:00;4.30;99.90
71084;DHT22;58741;52.672;13.548;2024-02-28T06:23:27;4.30;99.90
71084;DHT22;58741;52.672;13.548;2024-02-28T06:25:56;4.20;99.90
71084;DHT22;58741;52.672;13.548;2024-02-28T06:28:24;4.20;99.90
71084;DHT22;58741;52.672;13.548;2024-02-28T06:30:51;4.20;99.90
71084;DHT22;58741;52.672;13.548;2024-02-28T06:33:18;4.20;99.90
71084;DHT22;58741;52.672;13.548;2024-02-28T06:35:45;4.20;99.90
71084;DHT22;58741;52.672;13.548;2024-02-28T06:38:12;4.20;99.90
71084;DHT22;58741;52.672;13.548;2024-02-28T06:40:39;4.30;99.90
71084;DHT22;58741;52.672;13.548;2024-02-28T06:43:06;4.30;99.90
71084;DHT22;58741;52.672;13.548;2024-02-28T06:45:33;4.30;99.90
71084;DHT22;58741;52.672;13.548;2024-02-28T06:47:59;4.30;99.90
71084;DHT22;58741;52.672;13.548;2024-02-28T06:50:26;4.30;99.90
71084;DHT22;58741;52.672;13.548;2024-02-28T06:52:53;4.30;99.90
71084;DHT22;58741;52.672;13.548;2024-02-28T06:55:20;4.30;99.90
71084;DHT22;58741;52.672;13.548;2024-02-28T06:57:47;4.30;99.90
71084;DHT22;58741;52.672;13.548;2024-02-28T07:00:14;4.30;99.90
71084;DHT22;58741;52.672;13.548;2024-02-28T07:02:42;4.30;99.90
71084;DHT22;58741;52.672;13.548;2024-02-28T07:05:10;4.30;99.90
71084;DHT22;58741;52.672;13.548;2024-02-28T07:07:37;4.30;99.90
71084;DHT22;58741;52.672;13.548;2024-02-28T07:10:04;4.30;99.90
71084;DHT22;58741;52.672;13.548;2024-02-28T07:12:32;4.30;99.90
71084;DHT22;58741;52.672;13.548;2024-02-28T07:14:59;4.30;99.90
71084;DHT22;58741;52.672;13.548;2024-02-28T07:17:25;4.30;99.90
71084;DHT22;58741;52.672;13.548;2024-02-28T07:19:52;4.30;99.90
71084;DHT22;58741;52.672;13.548;2024-02-28T07:22:19;4.30;99.90
71084;DHT22;58741;52.672;13.548;2024-02-28T07:24:47;4.30;99.90
71084;DHT22;58741;52.672;13.548;2024-02-28T07:27:14;4.40;99.90
71084;DHT22;58741;52.672;13.548;2024-02-28T07:29:42;4.40;99.90
71084;DHT22;58741;52.672;13.548;2024-02-28T07:32:09;4.30;99.90
71084;DHT22;58741;52.672;13.548;2024-02-28T07:34:36;4.40;99.90
71084;DHT22;58741;52.672;13.548;2024-02-28T07:37:02;4.30;99.90
71084;DHT22;58741;52.672;13.548;2024-02-28T07:39:29;4.40;99.90
71084;DHT22;58741;52.672;13.548;2024-02-28T07:41:56;4.30;99.90
71084;DHT22;58741;52.672;13.548;2024-02-28T07:44:23;4.30;99.90
71084;DHT22;58741;52.672;13.548;2024-02-28T07:46:50;4.30;99.90
71084;DHT22;58741;52.672;13.548;2024-02-28T07:49:17;4.30;99.90
71084;DHT22;58741;52.672;13.548;2024-02-28T07:51:44;4.30;99.90
71084;DHT22;58741;52.672;13.548;2024-02-28T07:54:12;4.40;99.90
71084;DHT22;58741;52.672;13.548;2024-02-28T07:56:38;4.40;99.90
71084;DHT22;58741;52.672;13.548;2024-02-28T07:59:05;4.40;99.90
71084;DHT22;58741;52.672;13.548;2024-02-28T08:01:33;4.40;99.90
71084;DHT22;58741;52.672;13.548;2024-02-28T08:04:01;4.40;99.90
71084;DHT22;58741;52.672;13.548;2024-02-28T08:06:29;4.40;99.90
71084;DHT22;58741;52.672;13.548;2024-02-28T08:08:55;4.40;99.90
71084;DHT22;58741;52.672;13.548;2024-02-28T08:11:22;4.40;99.90
71084;DHT22;58741;52.672;13.548;2024-02-28T08:13:50;4.30;99.90
71084;DHT22;58741;52.672;13.548;2024-02-28T08:16:17;4.30;99.90
71084;DHT22;58741;52.672;13.548;2024-02-28T08:18:44;4.30;99.90
71084;DHT22;58741;52.672;13.548;2024-02-28T08:21:11;4.30;99.90
71084;DHT22;58741;52.672;13.548;2024-02-28T08:23:38;4.30;99.90
71084;DHT22;58741;52.672;13.548;2024-02-28T08:26:05;4.20;99.90
71084;DHT22;58741;52.672;13.548;2024-02-28T08:28:31;4.20;99.90
71084;DHT22;58741;52.672;13.548;2024-02-28T08:30:58;4.20;99.90
71084;DHT22;58741;52.672;13.548;2024-02-28T08:33:25;4.20;99.90
71084;DHT22;58741;52.672;13.548;2024-02-28T08:35:53;4.10;99.90
71084;DHT22;58741;52.672;13.548;2024-02-28T08:38:20;4.00;99.90
71084;DHT22;58741;52.672;13.548;2024-02-28T08:40:47;4.00;99.90
71084;DHT22;58741;52.672;13.548;2024-02-28T08:43:14;4.00;99.90
71084;DHT22;58741;52.672;13.548;2024-02-28T08:45:40;4.00;99.90
71084;DHT22;58741;52.672;13.548;2024-02-28T08:48:07;4.00;99.90
71084;DHT22;58741;52.672;13.548;2024-02-28T08:50:35;4.10;99.90
71084;DHT22;58741;52.672;13.548;2024-02-28T08:53:02;4.10;99.90
71084;DHT22;58741;52.672;13.548;2024-02-28T08:55:30;4.10;99.90
71084;DHT22;58741;52.672;13.548;2024-02-28T08:57:57;4.10;99.90
71084;DHT22;58741;52.672;13.548;2024-02-28T09:00:25;4.10;99.90
71084;DHT22;58741;52.672;13.548;2024-02-28T09:02:51;4.00;99.90
71084;DHT22;58741;52.672;13.548;2024-02-28T09:05:18;4.00;99.90
71084;DHT22;58741;52.672;13.548;2024-02-28T09:07:45;4.00;99.90
71084;DHT22;58741;52.672;13.548;2024-02-28T09:10:17;4.00;99.90
71084;DHT22;58741;52.672;13.548;2024-02-28T09:12:50;3.90;99.90
71084;DHT22;58741;52.672;13.548;2024-02-28T09:15:17;3.90;99.90
71084;DHT22;58741;52.672;13.548;2024-02-28T09:17:45;3.80;99.90
71084;DHT22;58741;52.672;13.548;2024-02-28T09:20:12;3.90;99.90
71084;DHT22;58741;52.672;13.548;2024-02-28T09:22:39;3.90;99.90
71084;DHT22;58741;52.672;13.548;2024-02-28T09:25:07;3.80;99.90
71084;DHT22;58741;52.672;13.548;2024-02-28T09:27:36;3.80;99.90
71084;DHT22;58741;52.672;13.548;2024-02-28T09:30:04;3.90;99.90
71084;DHT22;58741;52.672;13.548;2024-02-28T09:32:31;3.90;99.90
71084;DHT22;58741;52.672;13.548;2024-02-28T09:34:58;3.90;99.90
71084;DHT22;58741;52.672;13.548;2024-02-28T09:37:25;3.90;99.90
71084;DHT22;58741;52.672;13.548;2024-02-28T09:39:52;3.90;99.90
71084;DHT22;58741;52.672;13.548;2024-02-28T09:42:19;4.00;99.90
71084;DHT22;58741;52.672;13.548;2024-02-28T09:44:47;4.00;99.90
71084;DHT22;58741;52.672;13.548;2024-02-28T09:47:14;4.10;99.90
71084;DHT22;58741;52.672;13.548;2024-02-28T09:49:45;4.10;99.90
71084;DHT22;58741;52.672;13.548;2024-02-28T09:52:16;4.10;99.90
71084;DHT22;58741;52.672;13.548;2024-02-28T09:54:43;4.20;99.90
71084;DHT22;58741;52.672;13.548;2024-02-28T09:57:11;4.10;99.90
71084;DHT22;58741;52.672;13.548;2024-02-28T09:59:39;4.10;99.90
71084;DHT22;58741;52.672;13.548;2024-02-28T10:02:20;4.10;99.90
71084;DHT22;58741;52.672;13.548;2024-02-28T10:04:48;4.10;99.90
71084;DHT22;58741;52.672;13.548;2024-02-28T10:07:14;4.10;99.90
71084;DHT22;58741;52.672;13.548;2024-02-28T10:09:42;4.10;99.90
71084;DHT22;58741;52.672;13.548;2024-02-28T10:12:09;4.10;99.90
71084;DHT22;58741;52.672;13.548;2024-02-28T10:14:36;4.00;99.90
71084;DHT22;58741;52.672;13.548;2024-02-28T10:17:05;4.00;99.90
71084;DHT22;58741;52.672;13.548;2024-02-28T10:19:32;4.00;99.90
71084;DHT22;58741;52.672;13.548;2024-02-28T10:22:00;4.00;99.90
71084;DHT22;58741;52.672;13.548;2024-02-28T10:24:27;4.00;99.90
71084;DHT22;58741;52.672;13.548;2024-02-28T10:26:54;4.00;99.90
71084;DHT22;58741;52.672;13.548;2024-02-28T10:29:24;4.00;99.90
71084;DHT22;58741;52.672;13.548;2024-02-28T10:31:52;4.10;99.90
71084;DHT22;58741;52.672;13.548;2024-02-28T10:34:19;4.10;99.90
71084;DHT22;58741;52.672;13.548;2024-02-28T10:36:46;4.10;99.90
71084;DHT22;58741;52.672;13.548;2024-02-28T10:39:14;4.10;99.90
71084;DHT22;58741;52.672;13.548;2024-02-28T10:41:41;4.00;99.90
71084;DHT22;58741;52.672;13.548;2024-02-28T10:44:09;4.00;99.90
71084;DHT22;58741;52.672;13.548;2024-02-28T10:46:37;3.90;99.90
71084;DHT22;58741;52.672;13.548;2024-02-28T10:49:05;3.90;99.90
71084;DHT22;58741;52.672;13.548;2024-02-28T10:51:36;3.90;99.90
71084;DHT22;58741;52.672;13.548;2024-02-28T10:54:10;4.00;99.90
71084;DHT22;58741;52.672;13.548;2024-02-28T10:56:42;4.00;99.90
71084;DHT22;58741;52.672;13.548;2024-02-28T10:59:11;4.00;99.90
71084;DHT22;58741;52.672;13.548;2024-02-28T11:01:41;4.10;99.90
71084;DHT22;58741;52.672;13.548;2024-02-28T11:04:10;4.10;99.90
71084;DHT22;58741;52.672;13.548;2024-02-28T11:09:24;4.10;99.90
71084;DHT22;58741;52.672;13.548;2024-02-28T11:11:53;4.00;99.90
71084;DHT22;58741;52.672;13.548;2024-02-28T11:14:21;4.10;99.90
71084;DHT22;58741;52.672;13.548;2024-02-28T11:17:00;4.10;99.90
71084;DHT22;58741;52.672;13.548;2024-02-28T11:19:29;4.10;99.90
71084;DHT22;58741;52.672;13.548;2024-02-28T11:22:00;4.10;99.90
71084;DHT22;58741;52.672;13.548;2024-02-28T11:24:33;4.20;99.90
71084;DHT22;58741;52.672;13.548;2024-02-28T11:27:01;4.20;99.90
71084;DHT22;58741;52.672;13.548;2024-02-28T11:29:32;4.20;99.90
71084;DHT22;58741;52.672;13.548;2024-02-28T11:31:59;4.20;99.90
71084;DHT22;58741;52.672;13.548;2024-02-28T11:34:25;4.20;99.90
71084;DHT22;58741;52.672;13.548;2024-02-28T11:36:53;4.20;99.90
71084;DHT22;58741;52.672;13.548;2024-02-28T11:39:22;4.20;99.90
71084;DHT22;58741;52.672;13.548;2024-02-28T11:41:51;4.10;99.90
71084;DHT22;58741;52.672;13.548;2024-02-28T11:44:19;4.10;99.90
71084;DHT22;58741;52.672;13.548;2024-02-28T11:46:47;4.20;99.90
71084;DHT22;58741;52.672;13.548;2024-02-28T11:49:15;4.20;99.90
71084;DHT22;58741;52.672;13.548;2024-02-28T11:51:43;4.20;99.90
71084;DHT22;58741;52.672;13.548;2024-02-28T11:54:11;4.30;99.90
71084;DHT22;58741;52.672;13.548;2024-02-28T11:56:38;4.30;99.90
71084;DHT22;58741;52.672;13.548;2024-02-28T11:59:06;4.30;99.90
71084;DHT22;58741;52.672;13.548;2024-02-28T12:01:37;4.30;99.90
71084;DHT22;58741;52.672;13.548;2024-02-28T12:04:05;4.30;99.90
71084;DHT22;58741;52.672;13.548;2024-02-28T12:06:34;4.30;99.90
71084;DHT22;58741;52.672;13.548;2024-02-28T12:09:04;4.30;99.90
71084;DHT22;58741;52.672;13.548;2024-02-28T12:11:31;4.30;99.90
71084;DHT22;58741;52.672;13.548;2024-02-28T12:13:58;4.40;99.90
71084;DHT22;58741;52.672;13.548;2024-02-28T12:16:26;4.40;99.90
71084;DHT22;58741;52.672;13.548;2024-02-28T12:18:54;4.40;99.90
71084;DHT22;58741;52.672;13.548;2024-02-28T12:21:22;4.50;99.90
71084;DHT22;58741;52.672;13.548;2024-02-28T12:23:49;4.50;99.90
71084;DHT22;58741;52.672;13.548;2024-02-28T12:26:17;4.60;99.90
71084;DHT22;58741;52.672;13.548;2024-02-28T12:28:46;4.60;99.90
71084;DHT22;58741;52.672;13.548;2024-02-28T12:31:13;4.60;99.90
71084;DHT22;58741;52.672;13.548;2024-02-28T12:33:40;4.70;99.90
71084;DHT22;58741;52.672;13.548;2024-02-28T12:36:08;4.70;99.90
71084;DHT22;58741;52.672;13.548;2024-02-28T12:38:35;4.70;99.90
71084;DHT22;58741;52.672;13.548;2024-02-28T12:41:02;4.70;99.90
71084;DHT22;58741;52.672;13.548;2024-02-28T12:43:30;4.70;99.90
71084;DHT22;58741;52.672;13.548;2024-02-28T12:45:59;4.70;99.90
71084;DHT22;58741;52.672;13.548;2024-02-28T12:48:26;4.60;99.90
71084;DHT22;58741;52.672;13.548;2024-02-28T12:50:53;4.70;99.90
71084;DHT22;58741;52.672;13.548;2024-02-28T12:53:20;4.70;99.90
71084;DHT22;58741;52.672;13.548;2024-02-28T12:55:47;4.70;99.90
71084;DHT22;58741;52.672;13.548;2024-02-28T12:58:13;4.80;99.90
71084;DHT22;58741;52.672;13.548;2024-02-28T13:00:40;4.80;99.90
71084;DHT22;58741;52.672;13.548;2024-02-28T13:03:08;4.90;99.90
71084;DHT22;58741;52.672;13.548;2024-02-28T13:05:35;4.90;99.90
71084;DHT22;58741;52.672;13.548;2024-02-28T13:08:02;5.00;99.90
71084;DHT22;58741;52.672;13.548;2024-02-28T13:10:30;5.00;99.90
71084;DHT22;58741;52.672;13.548;2024-02-28T13:12:57;5.10;99.90
71084;DHT22;58741;52.672;13.548;2024-02-28T13:15:23;5.10;99.90
71084;DHT22;58741;52.672;13.548;2024-02-28T13:17:50;5.20;99.90
71084;DHT22;58741;52.672;13.548;2024-02-28T13:20:19;5.20;99.90
71084;DHT22;58741;52.672;13.548;2024-02-28T13:22:46;5.20;99.90
71084;DHT22;58741;52.672;13.548;2024-02-28T13:25:13;5.30;99.90
71084;DHT22;58741;52.672;13.548;2024-02-28T13:27:41;5.30;99.90
71084;DHT22;58741;52.672;13.548;2024-02-28T13:30:08;5.40;99.90
71084;DHT22;58741;52.672;13.548;2024-02-28T13:32:35;5.40;99.90
71084;DHT22;58741;52.672;13.548;2024-02-28T13:35:02;5.40;99.90
71084;DHT22;58741;52.672;13.548;2024-02-28T13:37:29;5.40;99.90
71084;DHT22;58741;52.672;13.548;2024-02-28T13:39:56;5.50;99.90
71084;DHT22;58741;52.672;13.548;2024-02-28T13:42:23;5.50;99.90
71084;DHT22;58741;52.672;13.548;2024-02-28T13:44:51;5.60;99.90
71084;DHT22;58741;52.672;13.548;2024-02-28T13:47:18;5.60;99.90
71084;DHT22;58741;52.672;13.548;2024-02-28T13:49:45;5.60;99.90
71084;DHT22;58741;52.672;13.548;2024-02-28T13:52:12;5.70;99.90
71084;DHT22;58741;52.672;13.548;2024-02-28T13:54:39;5.70;99.90
71084;DHT22;58741;52.672;13.548;2024-02-28T13:57:06;5.70;99.90
71084;DHT22;58741;52.672;13.548;2024-02-28T13:59:36;5.70;99.90
71084;DHT22;58741;52.672;13.548;2024-02-28T14:02:02;5.70;99.90
71084;DHT22;58741;52.672;13.548;2024-02-28T14:04:29;5.70;99.90
71084;DHT22;58741;52.672;13.548;2024-02-28T14:06:56;5.70;99.90
71084;DHT22;58741;52.672;13.548;2024-02-28T14:09:23;5.70;99.90
71084;DHT22;58741;52.672;13.548;2024-02-28T14:11:50;5.70;99.90
71084;DHT22;58741;52.672;13.548;2024-02-28T14:14:17;5.70;99.90
71084;DHT22;58741;52.672;13.548;2024-02-28T14:16:44;5.70;99.90
71084;DHT22;58741;52.672;13.548;2024-02-28T14:19:10;5.80;99.90
71084;DHT22;58741;52.672;13.548;2024-02-28T14:21:37;5.80;99.90
71084;DHT22;58741;52.672;13.548;2024-02-28T14:24:04;5.80;99.90
71084;DHT22;58741;52.672;13.548;2024-02-28T14:26:31;5.80;99.90
71084;DHT22;58741;52.672;13.548;2024-02-28T14:28:58;5.70;99.90
71084;DHT22;58741;52.672;13.548;2024-02-28T14:31:25;5.70;99.90
71084;DHT22;58741;52.672;13.548;2024-02-28T14:33:53;5.70;99.90
71084;DHT22;58741;52.672;13.548;2024-02-28T14:36:21;5.70;99.90
71084;DHT22;58741;52.672;13.548;2024-02-28T14:38:48;5.80;99.90
71084;DHT22;58741;52.672;13.548;2024-02-28T14:41:15;5.90;99.90
71084;DHT22;58741;52.672;13.548;2024-02-28T14:43:42;5.90;99.90
71084;DHT22;58741;52.672;13.548;2024-02-28T14:46:09;6.00;99.90
71084;DHT22;58741;52.672;13.548;2024-02-28T14:48:37;6.10;99.90
71084;DHT22;58741;52.672;13.548;2024-02-28T14:51:05;6.20;99.90
71084;DHT22;58741;52.672;13.548;2024-02-28T14:53:32;6.20;99.90
71084;DHT22;58741;52.672;13.548;2024-02-28T14:55:59;6.20;99.90
71084;DHT22;58741;52.672;13.548;2024-02-28T14:58:26;6.30;99.90
71084;DHT22;58741;52.672;13.548;2024-02-28T15:00:53;6.20;99.90
71084;DHT22;58741;52.672;13.548;2024-02-28T15:03:25;6.30;99.90
71084;DHT22;58741;52.672;13.548;2024-02-28T15:05:52;6.20;99.90
71084;DHT22;58741;52.672;13.548;2024-02-28T15:08:18;6.20;99.90
71084;DHT22;58741;52.672;13.548;2024-02-28T15:10:45;6.20;99.90
71084;DHT22;58741;52.672;13.548;2024-02-28T15:13:12;6.20;99.90
71084;DHT22;58741;52.672;13.548;2024-02-28T15:15:39;6.20;99.90
71084;DHT22;58741;52.672;13.548;2024-02-28T15:18:09;6.20;99.90
71084;DHT22;58741;52.672;13.548;2024-02-28T15:20:36;6.20;99.90
71084;DHT22;58741;52.672;13.548;2024-02-28T15:23:02;6.30;99.90
71084;DHT22;58741;52.672;13.548;2024-02-28T15:25:30;6.40;99.90
71084;DHT22;58741;52.672;13.548;2024-02-28T15:27:57;6.50;99.90
71084;DHT22;58741;52.672;13.548;2024-02-28T15:30:24;6.70;99.90
71084;DHT22;58741;52.672;13.548;2024-02-28T15:32:51;6.80;99.90
71084;DHT22;58741;52.672;13.548;2024-02-28T15:35:18;6.80;99.90